Terminal Aerodrome Forecast
Issued by NWS Twin Cities, MN

Home | Current Version | Previous Version | Graphics & Text | Print | Product List | Glossary On
Versions: 1 2 3 4 5 6 7 8 9 10 11 12 13 14 15 16 17 18 19 20 21 22 23
000
FTUS43 KMPX 232000 AAC
TAFEAU
TAF AMD
KEAU 232052Z 2321/2418 18006KT 3SM BR OVC004
     FM240000 17003KT 6SM BR SCT005 BKN012
     FM240200 20003KT P6SM SCT012
     FM240600 21003KT 3SM BR FEW010
     FM241000 00000KT 1/4SM FG VV001
     FM241500 18003KT 6SM BR SKC=

USA.gov is the U.S. government's official web portal to all federal, state and local government web resources and services.